createdAt,value
2019-03-28T00:03:27.091Z,2.23
2019-03-28T00:07:47.617Z,1.70
2019-03-28T00:12:06.617Z,1.90
2019-03-28T00:16:25.853Z,1.60
2019-03-28T00:20:45.092Z,1.60
2019-03-28T00:25:07.869Z,1.23
2019-03-28T00:29:28.390Z,1.63
2019-03-28T00:33:48.374Z,1.40
2019-03-28T00:38:08.227Z,1.30
2019-03-28T00:42:27.434Z,1.70
2019-03-28T00:46:47.403Z,1.50
2019-03-28T00:51:06.975Z,1.70
2019-03-28T00:55:27.090Z,1.70
2019-03-28T00:59:45.990Z,1.73
2019-03-28T01:04:05.825Z,1.60
2019-03-28T01:08:25.837Z,1.80
2019-03-28T01:12:46.039Z,1.67
2019-03-28T01:17:05.241Z,1.30
2019-03-28T01:21:24.321Z,2.00
2019-03-28T01:25:44.256Z,1.50
2019-03-28T01:30:03.281Z,1.70
2019-03-28T01:34:23.682Z,1.77
2019-03-28T01:38:42.904Z,1.23
2019-03-28T01:43:01.896Z,1.57
2019-03-28T01:47:21.428Z,1.37
2019-03-28T01:51:40.406Z,2.73
2019-03-28T01:55:59.423Z,2.17
2019-03-28T02:00:18.517Z,1.53
2019-03-28T02:04:37.573Z,2.67
2019-03-28T02:08:56.587Z,2.37
2019-03-28T02:13:15.614Z,1.63
2019-03-28T02:17:34.969Z,1.90
2019-03-28T02:21:54.841Z,1.87
2019-03-28T02:26:14.280Z,2.00
2019-03-28T02:30:35.244Z,2.73
2019-03-28T02:34:54.212Z,1.73
2019-03-28T02:39:13.260Z,1.50
2019-03-28T02:43:32.335Z,1.70
2019-03-28T02:47:51.701Z,2.17
2019-03-28T02:52:11.211Z,2.83
2019-03-28T02:56:30.690Z,1.90
2019-03-28T03:00:51.880Z,1.93
2019-03-28T03:05:11.720Z,1.17
2019-03-28T03:09:31.676Z,1.63
2019-03-28T03:13:51.007Z,1.43
2019-03-28T03:18:11.705Z,1.70
2019-03-28T03:22:32.273Z,1.43
2019-03-28T03:26:51.348Z,5.13
2019-03-28T03:31:10.507Z,1.70
2019-03-28T03:35:29.532Z,1.50
2019-03-28T03:39:48.549Z,1.70
2019-03-28T03:44:07.460Z,1.70
2019-03-28T03:48:28.528Z,1.60
2019-03-28T03:52:47.539Z,2.53
2019-03-28T03:57:06.479Z,1.93
2019-03-28T04:01:26.346Z,2.27
2019-03-28T04:05:46.743Z,1.60
2019-03-28T04:10:06.575Z,2.37
2019-03-28T04:14:25.714Z,1.80
2019-03-28T04:18:45.201Z,1.93
2019-03-28T04:23:04.707Z,2.63
2019-03-28T04:27:23.873Z,2.10
2019-03-28T04:31:42.832Z,2.50
2019-03-28T04:36:01.925Z,1.93
2019-03-28T04:40:20.797Z,1.60
2019-03-28T04:44:39.834Z,2.80
2019-03-28T04:48:58.842Z,1.87
2019-03-28T04:53:17.774Z,2.57
2019-03-28T04:57:40.925Z,1.90
2019-03-28T05:02:02.793Z,1.70
2019-03-28T05:06:19.704Z,2.10
2019-03-28T05:10:38.722Z,1.87
2019-03-28T05:14:57.811Z,1.80
2019-03-28T05:19:18.421Z,2.17
2019-03-28T05:23:38.962Z,2.00
2019-03-28T05:27:59.326Z,1.70
2019-03-28T05:32:18.896Z,2.60
2019-03-28T05:36:38.432Z,2.03
2019-03-28T05:40:57.434Z,1.60
2019-03-28T05:45:17.618Z,2.47
2019-03-28T05:49:36.816Z,1.93
2019-03-28T05:53:55.814Z,2.00
2019-03-28T05:58:14.880Z,1.87
2019-03-28T06:02:34.840Z,1.80
2019-03-28T06:06:54.835Z,1.80
2019-03-28T06:11:13.968Z,2.63
2019-03-28T06:15:33.059Z,2.73
2019-03-28T06:19:52.534Z,3.60
2019-03-28T06:24:11.494Z,2.43
2019-03-28T06:28:31.091Z,2.40
2019-03-28T06:32:51.546Z,2.00
2019-03-28T06:37:11.157Z,1.90
2019-03-28T06:41:30.330Z,4.70
2019-03-28T06:45:49.284Z,2.13
2019-03-28T06:50:10.015Z,2.23
2019-03-28T06:54:29.080Z,2.13
2019-03-28T06:58:48.193Z,2.57
2019-03-28T07:03:08.290Z,2.13
2019-03-28T07:07:28.861Z,2.67
2019-03-28T07:11:49.297Z,3.33
2019-03-28T07:16:09.458Z,3.00
2019-03-28T07:20:28.545Z,2.97
2019-03-28T07:24:48.333Z,4.30
2019-03-28T07:29:07.903Z,3.60
2019-03-28T07:33:27.168Z,3.73
2019-03-28T07:37:46.299Z,2.27
2019-03-28T07:42:06.442Z,2.60
2019-03-28T07:46:27.344Z,2.47
2019-03-28T07:50:48.274Z,2.47
2019-03-28T07:55:08.519Z,2.70
2019-03-28T07:59:29.247Z,4.60
2019-03-28T08:03:48.403Z,4.93
2019-03-28T08:08:08.301Z,4.50
2019-03-28T08:12:27.477Z,5.07
2019-03-28T08:16:46.911Z,7.20
2019-03-28T08:21:07.214Z,6.97
2019-03-28T08:25:27.834Z,5.90
2019-03-28T08:29:47.302Z,5.80
2019-03-28T08:34:06.550Z,8.70
2019-03-28T08:38:26.670Z,6.13
2019-03-28T08:42:46.174Z,7.00
2019-03-28T08:47:06.316Z,10.17
2019-03-28T08:51:27.343Z,7.70
2019-03-28T08:55:46.440Z,7.97
2019-03-28T09:00:06.290Z,7.07
2019-03-28T09:04:25.263Z,8.20
2019-03-28T09:08:44.431Z,10.10
2019-03-28T09:13:03.346Z,19.27
2019-03-28T09:17:24.013Z,17.67
2019-03-28T09:21:43.325Z,16.43
2019-03-28T09:26:04.394Z,19.23
2019-03-28T09:30:48.251Z,17.53
2019-03-28T09:35:00.982Z,18.67
2019-03-28T09:39:20.219Z,16.60
2019-03-28T09:43:39.203Z,16.77
2019-03-28T09:47:58.696Z,16.17
2019-03-28T09:52:17.634Z,15.90
2019-03-28T09:56:36.887Z,16.77
2019-03-28T10:01:02.839Z,15.50
2019-03-28T10:05:18.616Z,16.83
2019-03-28T10:09:37.511Z,16.20
2019-03-28T10:13:57.186Z,15.20
2019-03-28T10:18:16.166Z,15.73
2019-03-28T10:22:35.674Z,15.20
2019-03-28T10:26:54.860Z,15.43
2019-03-28T10:31:16.918Z,14.20
2019-03-28T10:35:37.808Z,14.57
2019-03-28T10:39:57.337Z,14.50
2019-03-28T10:44:16.234Z,14.50
2019-03-28T10:48:35.290Z,15.20
2019-03-28T10:52:55.794Z,14.57
2019-03-28T10:57:28.898Z,14.20
2019-03-28T11:01:48.200Z,14.50
2019-03-28T11:05:56.725Z,14.03
2019-03-28T11:10:17.523Z,14.60
2019-03-28T11:14:36.964Z,13.93
2019-03-28T11:18:55.985Z,14.07
2019-03-28T11:23:16.171Z,15.00
2019-03-28T11:27:35.858Z,14.57
2019-03-28T11:31:55.788Z,14.63
2019-03-28T11:36:14.841Z,13.37
2019-03-28T11:40:33.791Z,13.20
2019-03-28T11:44:53.392Z,15.67
2019-03-28T11:49:13.233Z,12.53
2019-03-28T11:53:32.279Z,12.33
2019-03-28T11:57:51.345Z,12.30
2019-03-28T12:02:19.673Z,12.50
2019-03-28T12:06:32.286Z,12.50
2019-03-28T12:10:51.359Z,14.00
2019-03-28T12:15:13.230Z,12.90
2019-03-28T12:19:33.191Z,12.47
2019-03-28T12:23:52.467Z,13.10
2019-03-28T12:28:11.710Z,12.90
2019-03-28T12:32:31.512Z,13.60
2019-03-28T12:36:50.792Z,13.70
2019-03-28T12:41:09.761Z,13.80
2019-03-28T12:45:28.694Z,13.50
2019-03-28T12:49:48.975Z,13.73
2019-03-28T12:54:07.997Z,13.90
2019-03-28T12:58:27.365Z,14.83
2019-03-28T13:02:50.955Z,14.00
2019-03-28T13:07:09.900Z,14.30
2019-03-28T13:11:28.977Z,15.47
2019-03-28T13:15:49.511Z,14.50
2019-03-28T13:20:10.434Z,14.37
2019-03-28T13:24:29.469Z,14.67
2019-03-28T13:28:48.739Z,14.87
2019-03-28T13:33:07.838Z,14.80
2019-03-28T13:37:27.023Z,15.50
2019-03-28T13:41:46.402Z,15.00
2019-03-28T13:46:06.584Z,16.63
2019-03-28T13:50:26.277Z,16.40
2019-03-28T13:54:45.376Z,18.60
2019-03-28T13:59:05.246Z,15.30
2019-03-28T14:03:24.846Z,16.37
2019-03-28T14:07:45.369Z,15.77
2019-03-28T14:12:04.523Z,15.37
2019-03-28T14:16:23.689Z,15.33
2019-03-28T14:20:42.766Z,16.97
2019-03-28T14:25:01.903Z,16.17
2019-03-28T14:29:21.245Z,16.10
2019-03-28T14:33:40.058Z,17.10
2019-03-28T14:37:59.396Z,15.90
2019-03-28T14:42:19.946Z,15.80
2019-03-28T14:46:39.203Z,15.70
2019-03-28T14:50:58.772Z,15.60
2019-03-28T14:55:17.695Z,15.87
2019-03-28T14:59:37.759Z,15.70
2019-03-28T15:03:56.972Z,15.93
2019-03-28T15:08:16.294Z,15.60
2019-03-28T15:12:37.312Z,16.43
2019-03-28T15:16:59.588Z,15.77
2019-03-28T15:21:19.149Z,16.73
2019-03-28T15:25:38.206Z,16.23
2019-03-28T15:29:57.918Z,16.20
2019-03-28T15:34:17.290Z,16.23
2019-03-28T15:38:36.363Z,16.50
2019-03-28T15:42:56.807Z,17.50
2019-03-28T15:47:15.750Z,16.77
2019-03-28T15:51:34.830Z,17.13
2019-03-28T15:55:54.157Z,16.70
2019-03-28T16:00:14.270Z,15.80
2019-03-28T16:04:33.247Z,16.37
2019-03-28T16:08:53.557Z,16.77
2019-03-28T16:13:12.702Z,16.80
2019-03-28T16:17:31.727Z,16.90
2019-03-28T16:21:51.126Z,16.57
2019-03-28T16:26:10.019Z,18.07
2019-03-28T16:30:41.442Z,17.40
2019-03-28T16:35:02.307Z,16.90
2019-03-28T16:39:23.270Z,16.97
2019-03-28T16:43:42.278Z,18.07
2019-03-28T16:48:01.795Z,17.17
2019-03-28T16:52:21.057Z,17.27
2019-03-28T16:56:47.361Z,17.37
2019-03-28T17:01:07.297Z,18.17
2019-03-28T17:05:26.351Z,17.77
2019-03-28T17:09:45.501Z,17.70
2019-03-28T17:14:04.498Z,17.77
2019-03-28T17:18:23.426Z,17.87
2019-03-28T17:22:42.499Z,18.10
2019-03-28T17:27:01.642Z,18.17
2019-03-28T17:31:22.311Z,18.60
2019-03-28T17:35:41.967Z,18.80
2019-03-28T17:40:01.410Z,18.87
2019-03-28T17:44:20.431Z,18.70
2019-03-28T17:48:39.436Z,18.60
2019-03-28T17:52:59.035Z,18.80
2019-03-28T17:57:21.164Z,18.87
2019-03-28T18:01:42.858Z,19.20
2019-03-28T18:06:02.885Z,19.37
2019-03-28T18:10:23.558Z,19.80
2019-03-28T18:14:42.752Z,19.43
2019-03-28T18:19:02.717Z,19.57
2019-03-28T18:23:23.682Z,19.50
2019-03-28T18:27:46.964Z,20.23
2019-03-28T18:32:06.805Z,19.43
2019-03-28T18:36:26.902Z,19.77
2019-03-28T18:40:46.829Z,19.77
2019-03-28T18:45:12.723Z,19.57
2019-03-28T18:49:32.316Z,19.20
2019-03-28T18:54:00.549Z,19.60
2019-03-28T18:58:21.085Z,19.60
2019-03-28T19:02:40.230Z,19.30
2019-03-28T19:06:59.329Z,19.77
2019-03-28T19:11:18.804Z,19.57
2019-03-28T19:15:37.972Z,19.63
2019-03-28T19:19:59.468Z,19.60
2019-03-28T19:24:19.102Z,20.67
2019-03-28T19:28:38.842Z,19.47
2019-03-28T19:32:57.926Z,19.70
2019-03-28T19:37:22.613Z,19.50
2019-03-28T19:41:42.035Z,19.50
2019-03-28T19:46:02.014Z,19.50
2019-03-28T19:50:29.957Z,20.60
2019-03-28T19:54:50.446Z,20.50
2019-03-28T19:59:11.071Z,19.77
2019-03-28T20:03:31.182Z,19.20
2019-03-28T20:07:51.367Z,19.60
2019-03-28T20:12:13.225Z,19.23
2019-03-28T20:16:33.710Z,19.00
2019-03-28T20:20:55.673Z,19.27
2019-03-28T20:25:14.961Z,19.10
2019-03-28T20:29:35.217Z,19.43
2019-03-28T20:33:56.217Z,19.00
2019-03-28T20:38:15.466Z,19.40
2019-03-28T20:42:35.166Z,18.87
2019-03-28T20:46:55.289Z,19.27
2019-03-28T20:51:15.721Z,19.30
2019-03-28T20:55:35.137Z,19.13
2019-03-28T20:59:54.591Z,19.17
2019-03-28T21:04:13.691Z,19.77
2019-03-28T21:08:32.958Z,19.67
2019-03-28T21:12:52.127Z,18.93
2019-03-28T21:17:11.658Z,19.83
2019-03-28T21:21:30.978Z,19.17
2019-03-28T21:25:50.641Z,19.47
2019-03-28T21:30:11.478Z,19.43
2019-03-28T21:34:31.132Z,19.87
2019-03-28T21:38:50.577Z,20.33
2019-03-28T21:43:11.011Z,19.60
2019-03-28T21:47:32.211Z,19.77
2019-03-28T21:51:51.385Z,19.87
2019-03-28T21:56:14.121Z,19.90
2019-03-28T22:00:31.895Z,19.90
2019-03-28T22:04:51.049Z,19.87
2019-03-28T22:09:11.105Z,19.80
2019-03-28T22:13:30.334Z,20.10
2019-03-28T22:17:49.275Z,20.20
2019-03-28T22:22:11.188Z,20.53
2019-03-28T22:26:30.156Z,19.77
2019-03-28T22:30:50.088Z,20.03
2019-03-28T22:35:11.009Z,19.90
2019-03-28T22:39:31.276Z,19.97
2019-03-28T22:43:50.788Z,21.00
2019-03-28T22:48:11.477Z,19.93
2019-03-28T22:52:31.081Z,19.67
2019-03-28T22:56:51.730Z,20.33
2019-03-28T23:01:11.581Z,20.67
2019-03-28T23:05:31.241Z,19.80
2019-03-28T23:09:50.647Z,19.80
2019-03-28T23:14:09.706Z,20.10
2019-03-28T23:18:29.412Z,20.27
2019-03-28T23:22:49.504Z,20.50
2019-03-28T23:27:08.543Z,20.07
2019-03-28T23:31:27.873Z,19.60
2019-03-28T23:35:46.931Z,20.20
2019-03-28T23:40:06.286Z,19.80
2019-03-28T23:44:25.222Z,19.77
2019-03-28T23:48:44.808Z,19.60
2019-03-28T23:53:04.022Z,19.80
2019-03-28T23:57:23.481Z,19.87
